Splane Place, Louisiana
Current Conditions -  °F | °C
As of 9:53 AM on Thursday 18 Dec 2014 (Local Time) from KMLU Reporting Station
Haze Haze  
Wind Chill: 43°   Ceiling: 3300
Heat Index: 46°   Visibility: 10mi
Dew Point: 44°   Wind: 6mph
Humidity: 93%   Direction: 70°ENE
Pressure: 30.23"   Gusts: NA
Location:  32.5473°N, 92.2007°W
Report Text: KMLU 181553Z 07005KT 10SM BR OVC033 08/07 A3023 RMK AO2 SLP235 T00780067
Loading
Personal Weather Stations






























Interactive Weather Map New forecast layout! Learn more

10-Day Weather Forecast

Advertisements
Track Severe Weather on mobile